sensor_id;sensor_type;location;lat;lon;timestamp;pressure;altitude;pressure_sealevel;temperature;humidity
72585;BME280;60618;40.084;32.908;2023-04-16T00:01:01;89524.66;;;14.16;49.49
72585;BME280;60618;40.084;32.908;2023-04-16T00:03:28;89528.06;;;14.22;49.61
72585;BME280;60618;40.084;32.908;2023-04-16T00:05:55;89525.63;;;14.24;48.87
72585;BME280;60618;40.084;32.908;2023-04-16T00:08:22;89540.03;;;14.10;50.03
72585;BME280;60618;40.084;32.908;2023-04-16T00:10:51;89525.44;;;14.00;49.46
72585;BME280;60618;40.084;32.908;2023-04-16T00:13:18;89530.28;;;14.07;49.85
72585;BME280;60618;40.084;32.908;2023-04-16T00:15:45;89523.72;;;14.08;49.70
72585;BME280;60618;40.084;32.908;2023-04-16T00:18:12;89526.38;;;14.13;49.27
72585;BME280;60618;40.084;32.908;2023-04-16T00:20:39;89531.25;;;14.15;49.67
72585;BME280;60618;40.084;32.908;2023-04-16T00:23:06;89521.34;;;13.82;50.86
72585;BME280;60618;40.084;32.908;2023-04-16T00:25:33;89537.19;;;13.80;50.84
72585;BME280;60618;40.084;32.908;2023-04-16T00:28:00;89532.56;;;13.80;50.88
72585;BME280;60618;40.084;32.908;2023-04-16T00:30:27;89525.97;;;13.81;51.05
72585;BME280;60618;40.084;32.908;2023-04-16T00:32:54;89525.97;;;13.81;50.87
72585;BME280;60618;40.084;32.908;2023-04-16T00:35:21;89531.81;;;13.85;50.75
72585;BME280;60618;40.084;32.908;2023-04-16T00:37:48;89527.19;;;13.86;50.89
72585;BME280;60618;40.084;32.908;2023-04-16T00:40:15;89520.63;;;13.87;51.22
72585;BME280;60618;40.084;32.908;2023-04-16T00:42:42;89516.00;;;13.87;51.39
72585;BME280;60618;40.084;32.908;2023-04-16T00:45:09;89530.34;;;13.90;51.49
72585;BME280;60618;40.084;32.908;2023-04-16T00:47:37;89520.34;;;13.90;51.15
72585;BME280;60618;40.084;32.908;2023-04-16T00:50:04;89527.16;;;13.91;51.64
72585;BME280;60618;40.084;32.908;2023-04-16T00:52:32;89521.81;;;13.91;51.13
72585;BME280;60618;40.084;32.908;2023-04-16T00:55:00;89516.00;;;13.82;51.62
72585;BME280;60618;40.084;32.908;2023-04-16T00:57:27;89512.09;;;13.83;51.91
72585;BME280;60618;40.084;32.908;2023-04-16T00:59:54;89514.78;;;13.83;51.63
72585;BME280;60618;40.084;32.908;2023-04-16T01:02:22;89513.31;;;13.82;51.64
72585;BME280;60618;40.084;32.908;2023-04-16T01:04:50;89525.03;;;13.79;51.73
72585;BME280;60618;40.084;32.908;2023-04-16T01:07:17;89522.63;;;13.58;52.57
72585;BME280;60618;40.084;32.908;2023-04-16T01:09:44;89516.06;;;13.09;54.51
72585;BME280;60618;40.084;32.908;2023-04-16T01:12:11;89520.72;;;13.25;53.27
72585;BME280;60618;40.084;32.908;2023-04-16T01:14:38;89522.91;;;13.21;53.54
72585;BME280;60618;40.084;32.908;2023-04-16T01:17:05;89514.34;;;13.12;53.56
72585;BME280;60618;40.084;32.908;2023-04-16T01:19:32;89513.13;;;13.01;54.65
72585;BME280;60618;40.084;32.908;2023-04-16T01:21:58;89518.72;;;12.92;54.96
72585;BME280;60618;40.084;32.908;2023-04-16T01:24:25;89513.84;;;12.91;54.23
72585;BME280;60618;40.084;32.908;2023-04-16T01:26:52;89518.47;;;13.01;53.82
72585;BME280;60618;40.084;32.908;2023-04-16T01:29:19;89510.47;;;12.96;54.26
72585;BME280;60618;40.084;32.908;2023-04-16T01:31:46;89507.56;;;13.05;53.83
72585;BME280;60618;40.084;32.908;2023-04-16T01:34:16;89520.19;;;13.16;53.76
72585;BME280;60618;40.084;32.908;2023-04-16T01:36:43;89512.22;;;13.21;53.85
72585;BME280;60618;40.084;32.908;2023-04-16T01:39:10;89505.38;;;13.26;53.53
72585;BME280;60618;40.084;32.908;2023-04-16T01:41:37;89501.50;;;13.21;53.42
72585;BME280;60618;40.084;32.908;2023-04-16T01:44:04;89509.53;;;13.27;53.71
72585;BME280;60618;40.084;32.908;2023-04-16T01:46:33;89500.25;;;13.11;54.60
72585;BME280;60618;40.084;32.908;2023-04-16T01:49:01;89507.31;;;13.03;54.34
72585;BME280;60618;40.084;32.908;2023-04-16T01:51:28;89505.59;;;13.00;55.66
72585;BME280;60618;40.084;32.908;2023-04-16T01:53:55;89505.13;;;13.07;54.20
72585;BME280;60618;40.084;32.908;2023-04-16T01:56:22;89494.66;;;13.09;54.00
72585;BME280;60618;40.084;32.908;2023-04-16T01:58:49;89491.03;;;13.12;53.98
72585;BME280;60618;40.084;32.908;2023-04-16T02:01:16;89496.63;;;13.03;54.81
72585;BME280;60618;40.084;32.908;2023-04-16T02:03:43;89490.31;;;13.06;54.45
72585;BME280;60618;40.084;32.908;2023-04-16T02:06:11;89491.00;;;12.73;56.06
72585;BME280;60618;40.084;32.908;2023-04-16T02:08:38;89494.91;;;12.83;55.13
72585;BME280;60618;40.084;32.908;2023-04-16T02:11:05;89500.25;;;12.89;54.70
72585;BME280;60618;40.084;32.908;2023-04-16T02:13:32;89499.50;;;12.83;55.72
72585;BME280;60618;40.084;32.908;2023-04-16T02:15:59;89495.59;;;12.50;57.53
72585;BME280;60618;40.084;32.908;2023-04-16T02:18:26;89502.38;;;12.45;57.12
72585;BME280;60618;40.084;32.908;2023-04-16T02:20:53;89491.97;;;12.59;56.21
72585;BME280;60618;40.084;32.908;2023-04-16T02:23:21;89495.59;;;12.67;55.89
72585;BME280;60618;40.084;32.908;2023-04-16T02:25:48;89492.97;;;12.78;55.54
72585;BME280;60618;40.084;32.908;2023-04-16T02:28:16;89496.84;;;12.77;55.60
72585;BME280;60618;40.084;32.908;2023-04-16T02:30:43;89499.75;;;12.79;56.44
72585;BME280;60618;40.084;32.908;2023-04-16T02:33:11;89496.34;;;12.67;57.02
72585;BME280;60618;40.084;32.908;2023-04-16T02:35:39;89498.06;;;12.70;56.04
72585;BME280;60618;40.084;32.908;2023-04-16T02:38:06;89499.75;;;12.62;56.49
72585;BME280;60618;40.084;32.908;2023-04-16T02:40:34;89492.94;;;12.67;55.97
72585;BME280;60618;40.084;32.908;2023-04-16T02:43:01;89493.47;;;12.76;55.89
72585;BME280;60618;40.084;32.908;2023-04-16T02:45:29;89491.03;;;12.78;55.69
72585;BME280;60618;40.084;32.908;2023-04-16T02:47:55;89483.72;;;12.79;55.82
72585;BME280;60618;40.084;32.908;2023-04-16T02:50:22;89486.16;;;12.77;55.29
72585;BME280;60618;40.084;32.908;2023-04-16T02:52:49;89492.22;;;12.72;55.03
72585;BME280;60618;40.084;32.908;2023-04-16T02:55:16;89486.09;;;12.49;56.08
72585;BME280;60618;40.084;32.908;2023-04-16T02:57:43;89484.88;;;12.39;56.59
72585;BME280;60618;40.084;32.908;2023-04-16T03:00:10;89491.88;;;12.31;57.45
72585;BME280;60618;40.084;32.908;2023-04-16T03:02:37;89489.25;;;11.77;59.56
72585;BME280;60618;40.084;32.908;2023-04-16T03:05:05;89490.56;;;11.50;61.08
72585;BME280;60618;40.084;32.908;2023-04-16T03:07:32;89488.66;;;11.56;60.76
72585;BME280;60618;40.084;32.908;2023-04-16T03:09:59;89484.59;;;11.60;60.08
72585;BME280;60618;40.084;32.908;2023-04-16T03:12:25;89484.50;;;11.92;58.74
72585;BME280;60618;40.084;32.908;2023-04-16T03:14:52;89486.00;;;12.04;57.88
72585;BME280;60618;40.084;32.908;2023-04-16T03:17:19;89490.59;;;11.98;59.15
72585;BME280;60618;40.084;32.908;2023-04-16T03:19:46;89489.63;;;12.01;58.85
72585;BME280;60618;40.084;32.908;2023-04-16T03:22:13;89488.50;;;12.25;58.03
72585;BME280;60618;40.084;32.908;2023-04-16T03:24:40;89490.66;;;12.15;57.77
72585;BME280;60618;40.084;32.908;2023-04-16T03:27:07;89499.59;;;12.12;57.95
72585;BME280;60618;40.084;32.908;2023-04-16T03:29:37;89498.72;;;11.78;60.43
72585;BME280;60618;40.084;32.908;2023-04-16T03:32:04;89493.78;;;11.59;60.46
72585;BME280;60618;40.084;32.908;2023-04-16T03:34:30;89491.81;;;11.54;59.98
72585;BME280;60618;40.084;32.908;2023-04-16T03:36:57;89491.41;;;11.73;59.61
72585;BME280;60618;40.084;32.908;2023-04-16T03:39:24;89502.41;;;11.86;58.89
72585;BME280;60618;40.084;32.908;2023-04-16T03:41:51;89504.91;;;12.01;58.62
72585;BME280;60618;40.084;32.908;2023-04-16T03:44:18;89502.03;;;12.04;58.37
72585;BME280;60618;40.084;32.908;2023-04-16T03:46:45;89503.47;;;12.05;58.20
72585;BME280;60618;40.084;32.908;2023-04-16T03:49:12;89508.56;;;12.03;58.59
72585;BME280;60618;40.084;32.908;2023-04-16T03:51:39;89507.09;;;12.02;58.47
72585;BME280;60618;40.084;32.908;2023-04-16T03:54:06;89503.28;;;12.14;58.24
72585;BME280;60618;40.084;32.908;2023-04-16T03:56:33;89505.22;;;12.19;58.26
72585;BME280;60618;40.084;32.908;2023-04-16T03:58:59;89497.19;;;12.19;58.46
72585;BME280;60618;40.084;32.908;2023-04-16T04:01:26;89497.97;;;12.26;58.04
72585;BME280;60618;40.084;32.908;2023-04-16T04:03:53;89505.25;;;12.31;57.81
72585;BME280;60618;40.084;32.908;2023-04-16T04:06:20;89504.94;;;12.06;58.43
72585;BME280;60618;40.084;32.908;2023-04-16T04:08:47;89508.47;;;11.81;59.50
72585;BME280;60618;40.084;32.908;2023-04-16T04:11:14;89511.59;;;11.79;59.47
72585;BME280;60618;40.084;32.908;2023-04-16T04:13:41;89521.53;;;11.79;59.83
72585;BME280;60618;40.084;32.908;2023-04-16T04:16:08;89517.03;;;12.02;59.24
72585;BME280;60618;40.084;32.908;2023-04-16T04:18:35;89508.41;;;12.29;59.55
72585;BME280;60618;40.084;32.908;2023-04-16T04:21:08;89509.44;;;12.65;59.41
72585;BME280;60618;40.084;32.908;2023-04-16T04:23:36;89514.09;;;12.70;58.66
72585;BME280;60618;40.084;32.908;2023-04-16T04:26:03;89518.22;;;12.94;60.08
72585;BME280;60618;40.084;32.908;2023-04-16T04:28:30;89520.19;;;13.04;59.48
72585;BME280;60618;40.084;32.908;2023-04-16T04:30:58;89521.91;;;13.13;60.94
72585;BME280;60618;40.084;32.908;2023-04-16T04:33:26;89517.53;;;13.44;58.05
72585;BME280;60618;40.084;32.908;2023-04-16T04:35:53;89511.13;;;13.80;56.41
72585;BME280;60618;40.084;32.908;2023-04-16T04:38:21;89509.31;;;14.22;54.97
72585;BME280;60618;40.084;32.908;2023-04-16T04:40:48;89527.66;;;14.65;57.12
72585;BME280;60618;40.084;32.908;2023-04-16T04:43:15;89515.19;;;15.09;55.02
72585;BME280;60618;40.084;32.908;2023-04-16T04:45:41;89519.59;;;15.36;53.54
72585;BME280;60618;40.084;32.908;2023-04-16T04:48:08;89518.53;;;15.80;55.01
72585;BME280;60618;40.084;32.908;2023-04-16T04:50:36;89514.78;;;16.13;53.47
72585;BME280;60618;40.084;32.908;2023-04-16T04:53:03;89519.97;;;16.49;53.09
72585;BME280;60618;40.084;32.908;2023-04-16T04:55:30;89515.53;;;16.76;51.78
72585;BME280;60618;40.084;32.908;2023-04-16T04:57:57;89523.00;;;17.02;50.48
72585;BME280;60618;40.084;32.908;2023-04-16T05:00:23;89527.19;;;17.16;50.52
72585;BME280;60618;40.084;32.908;2023-04-16T05:02:50;89514.72;;;17.32;50.79
72585;BME280;60618;40.084;32.908;2023-04-16T05:05:17;89522.34;;;17.60;50.88
72585;BME280;60618;40.084;32.908;2023-04-16T05:07:44;89526.97;;;17.78;49.07
72585;BME280;60618;40.084;32.908;2023-04-16T05:10:11;89519.84;;;17.49;49.49
72585;BME280;60618;40.084;32.908;2023-04-16T05:12:38;89523.75;;;17.35;50.67
72585;BME280;60618;40.084;32.908;2023-04-16T05:15:06;89511.94;;;17.38;50.24
72585;BME280;60618;40.084;32.908;2023-04-16T05:17:33;89521.34;;;17.63;50.54
72585;BME280;60618;40.084;32.908;2023-04-16T05:20:00;89523.50;;;17.97;49.84
72585;BME280;60618;40.084;32.908;2023-04-16T05:22:27;89512.31;;;18.06;50.32
72585;BME280;60618;40.084;32.908;2023-04-16T05:24:54;89512.59;;;17.76;51.45
72585;BME280;60618;40.084;32.908;2023-04-16T05:27:20;89506.06;;;17.71;52.23
72585;BME280;60618;40.084;32.908;2023-04-16T05:29:47;89515.53;;;17.59;51.69
72585;BME280;60618;40.084;32.908;2023-04-16T05:32:14;89503.69;;;17.49;51.34
72585;BME280;60618;40.084;32.908;2023-04-16T05:34:41;89501.25;;;17.64;49.47
72585;BME280;60618;40.084;32.908;2023-04-16T05:37:08;89506.72;;;17.91;49.90
72585;BME280;60618;40.084;32.908;2023-04-16T05:39:35;89501.63;;;18.13;47.59
72585;BME280;60618;40.084;32.908;2023-04-16T05:42:02;89505.25;;;18.29;47.49
72585;BME280;60618;40.084;32.908;2023-04-16T05:44:29;89498.03;;;18.24;45.84
72585;BME280;60618;40.084;32.908;2023-04-16T05:46:56;89507.56;;;17.99;45.77
72585;BME280;60618;40.084;32.908;2023-04-16T05:49:23;89500.47;;;17.96;47.46
72585;BME280;60618;40.084;32.908;2023-04-16T05:51:50;89502.53;;;17.76;46.30
72585;BME280;60618;40.084;32.908;2023-04-16T05:54:17;89495.34;;;17.66;46.94
72585;BME280;60618;40.084;32.908;2023-04-16T05:56:43;89490.00;;;17.79;45.36
72585;BME280;60618;40.084;32.908;2023-04-16T05:59:10;89490.00;;;18.05;45.61
72585;BME280;60618;40.084;32.908;2023-04-16T06:01:37;89489.63;;;18.01;43.86
72585;BME280;60618;40.084;32.908;2023-04-16T06:04:04;89487.03;;;18.09;44.61
72585;BME280;60618;40.084;32.908;2023-04-16T06:06:32;89486.38;;;18.29;43.89
72585;BME280;60618;40.084;32.908;2023-04-16T06:08:58;89488.66;;;17.72;43.64
72585;BME280;60618;40.084;32.908;2023-04-16T06:11:25;89486.22;;;17.23;43.50
72585;BME280;60618;40.084;32.908;2023-04-16T06:13:52;89493.59;;;17.68;44.04
72585;BME280;60618;40.084;32.908;2023-04-16T06:16:19;89490.16;;;17.68;43.99
72585;BME280;60618;40.084;32.908;2023-04-16T06:18:46;89496.06;;;17.53;45.43
72585;BME280;60618;40.084;32.908;2023-04-16T06:21:14;89487.34;;;17.60;46.17
72585;BME280;60618;40.084;32.908;2023-04-16T06:23:41;89498.84;;;18.19;45.88
72585;BME280;60618;40.084;32.908;2023-04-16T06:26:08;89489.69;;;17.82;45.00
72585;BME280;60618;40.084;32.908;2023-04-16T06:28:35;89480.50;;;17.59;45.23
72585;BME280;60618;40.084;32.908;2023-04-16T06:31:05;89481.44;;;17.16;45.58
72585;BME280;60618;40.084;32.908;2023-04-16T06:33:32;89480.91;;;16.86;47.95
72585;BME280;60618;40.084;32.908;2023-04-16T06:35:58;89483.75;;;17.25;48.38
72585;BME280;60618;40.084;32.908;2023-04-16T06:38:25;89477.47;;;17.81;46.13
72585;BME280;60618;40.084;32.908;2023-04-16T06:40:52;89477.91;;;17.99;44.27
72585;BME280;60618;40.084;32.908;2023-04-16T06:43:19;89488.25;;;18.34;45.14
72585;BME280;60618;40.084;32.908;2023-04-16T06:45:46;89488.22;;;18.61;43.76
72585;BME280;60618;40.084;32.908;2023-04-16T06:48:13;89490.41;;;19.10;41.95
72585;BME280;60618;40.084;32.908;2023-04-16T06:50:40;89480.72;;;19.69;40.74
72585;BME280;60618;40.084;32.908;2023-04-16T06:53:07;89485.13;;;19.80;40.31
72585;BME280;60618;40.084;32.908;2023-04-16T06:55:34;89475.69;;;19.73;37.77
72585;BME280;60618;40.084;32.908;2023-04-16T06:58:01;89473.13;;;19.68;38.59
72585;BME280;60618;40.084;32.908;2023-04-16T07:00:28;89476.41;;;19.32;39.38
72585;BME280;60618;40.084;32.908;2023-04-16T07:02:55;89476.81;;;19.02;39.05
72585;BME280;60618;40.084;32.908;2023-04-16T07:05:24;89473.03;;;19.18;39.54
72585;BME280;60618;40.084;32.908;2023-04-16T07:07:51;89480.66;;;19.62;39.38
72585;BME280;60618;40.084;32.908;2023-04-16T07:10:18;89478.88;;;20.13;38.95
72585;BME280;60618;40.084;32.908;2023-04-16T07:12:45;89477.00;;;20.37;38.19
72585;BME280;60618;40.084;32.908;2023-04-16T07:15:12;89481.66;;;20.00;38.60
72585;BME280;60618;40.084;32.908;2023-04-16T07:17:39;89482.53;;;19.95;37.20
72585;BME280;60618;40.084;32.908;2023-04-16T07:20:06;89468.22;;;20.16;37.44
72585;BME280;60618;40.084;32.908;2023-04-16T07:22:36;89465.13;;;20.11;38.39
72585;BME280;60618;40.084;32.908;2023-04-16T07:25:09;89477.78;;;19.46;38.85
72585;BME280;60618;40.084;32.908;2023-04-16T07:27:47;89465.94;;;19.28;38.83
72585;BME280;60618;40.084;32.908;2023-04-16T07:30:14;89465.38;;;19.09;38.37
72585;BME280;60618;40.084;32.908;2023-04-16T07:32:41;89471.66;;;19.25;38.81
72585;BME280;60618;40.084;32.908;2023-04-16T07:35:08;89460.88;;;19.67;39.00
72585;BME280;60618;40.084;32.908;2023-04-16T07:37:35;89460.03;;;20.00;40.95
72585;BME280;60618;40.084;32.908;2023-04-16T07:40:02;89466.50;;;19.97;40.82
72585;BME280;60618;40.084;32.908;2023-04-16T07:42:29;89458.09;;;20.08;38.92
72585;BME280;60618;40.084;32.908;2023-04-16T07:44:56;89449.38;;;20.31;38.49
72585;BME280;60618;40.084;32.908;2023-04-16T07:47:23;89449.41;;;20.75;35.88
72585;BME280;60618;40.084;32.908;2023-04-16T07:49:50;89444.91;;;20.69;34.61
72585;BME280;60618;40.084;32.908;2023-04-16T07:52:18;89453.13;;;20.56;35.19
72585;BME280;60618;40.084;32.908;2023-04-16T07:54:45;89437.28;;;20.60;35.43
72585;BME280;60618;40.084;32.908;2023-04-16T07:57:11;89447.81;;;19.78;34.75
72585;BME280;60618;40.084;32.908;2023-04-16T07:59:38;89456.25;;;19.33;36.20
72585;BME280;60618;40.084;32.908;2023-04-16T08:02:06;89448.59;;;18.69;35.50
72585;BME280;60618;40.084;32.908;2023-04-16T08:04:34;89454.16;;;18.10;37.41
72585;BME280;60618;40.084;32.908;2023-04-16T08:07:02;89461.09;;;18.19;36.57
72585;BME280;60618;40.084;32.908;2023-04-16T08:09:29;89456.97;;;17.92;39.33
72585;BME280;60618;40.084;32.908;2023-04-16T08:12:02;89459.59;;;17.65;42.33
72585;BME280;60618;40.084;32.908;2023-04-16T08:14:29;89460.59;;;17.36;43.00
72585;BME280;60618;40.084;32.908;2023-04-16T08:16:56;89458.44;;;17.15;42.43
72585;BME280;60618;40.084;32.908;2023-04-16T08:19:23;89460.97;;;16.94;41.38
72585;BME280;60618;40.084;32.908;2023-04-16T08:21:50;89463.91;;;16.78;42.98
72585;BME280;60618;40.084;32.908;2023-04-16T08:24:17;89466.53;;;16.45;42.44
72585;BME280;60618;40.084;32.908;2023-04-16T08:26:44;89461.25;;;16.34;41.72
72585;BME280;60618;40.084;32.908;2023-04-16T08:29:11;89456.75;;;16.24;41.91
72585;BME280;60618;40.084;32.908;2023-04-16T08:31:38;89463.88;;;16.21;44.24
72585;BME280;60618;40.084;32.908;2023-04-16T08:34:05;89451.47;;;16.37;40.20
72585;BME280;60618;40.084;32.908;2023-04-16T08:36:32;89439.34;;;16.49;39.12
72585;BME280;60618;40.084;32.908;2023-04-16T08:38:59;89444.22;;;16.69;41.08
72585;BME280;60618;40.084;32.908;2023-04-16T08:41:28;89446.59;;;16.92;38.59
72585;BME280;60618;40.084;32.908;2023-04-16T08:43:59;89434.41;;;17.04;38.29
72585;BME280;60618;40.084;32.908;2023-04-16T08:46:28;89443.19;;;17.37;36.51
72585;BME280;60618;40.084;32.908;2023-04-16T08:48:58;89436.34;;;18.07;37.18
72585;BME280;60618;40.084;32.908;2023-04-16T08:51:28;89438.44;;;18.62;39.35
72585;BME280;60618;40.084;32.908;2023-04-16T08:54:02;89425.84;;;18.64;37.91
72585;BME280;60618;40.084;32.908;2023-04-16T08:56:30;89430.16;;;18.47;38.12
72585;BME280;60618;40.084;32.908;2023-04-16T08:59:02;89425.22;;;18.24;38.06
72585;BME280;60618;40.084;32.908;2023-04-16T09:01:29;89431.03;;;18.28;39.17
72585;BME280;60618;40.084;32.908;2023-04-16T09:03:56;89428.13;;;18.26;35.15
72585;BME280;60618;40.084;32.908;2023-04-16T09:06:26;89423.56;;;18.34;36.95
72585;BME280;60618;40.084;32.908;2023-04-16T09:08:53;89434.25;;;18.00;36.12
72585;BME280;60618;40.084;32.908;2023-04-16T09:11:20;89420.38;;;18.09;37.09
72585;BME280;60618;40.084;32.908;2023-04-16T09:13:47;89422.09;;;18.33;36.14
72585;BME280;60618;40.084;32.908;2023-04-16T09:16:14;89414.16;;;18.01;35.69
72585;BME280;60618;40.084;32.908;2023-04-16T09:18:41;89415.06;;;18.04;38.38
72585;BME280;60618;40.084;32.908;2023-04-16T09:21:09;89413.72;;;17.97;38.33
72585;BME280;60618;40.084;32.908;2023-04-16T09:23:36;89410.88;;;18.42;39.00
72585;BME280;60618;40.084;32.908;2023-04-16T09:26:04;89413.81;;;18.79;37.48
72585;BME280;60618;40.084;32.908;2023-04-16T09:28:39;89405.63;;;19.05;37.65
72585;BME280;60618;40.084;32.908;2023-04-16T09:31:16;89397.94;;;18.96;37.40
72585;BME280;60618;40.084;32.908;2023-04-16T09:34:01;89391.56;;;18.86;35.22
72585;BME280;60618;40.084;32.908;2023-04-16T09:36:28;89389.69;;;19.15;37.85
72585;BME280;60618;40.084;32.908;2023-04-16T09:38:55;89387.63;;;19.08;38.84
72585;BME280;60618;40.084;32.908;2023-04-16T09:41:27;89389.25;;;19.52;37.66
72585;BME280;60618;40.084;32.908;2023-04-16T09:43:59;89388.69;;;19.25;35.92
72585;BME280;60618;40.084;32.908;2023-04-16T09:46:30;89383.47;;;19.27;37.31
72585;BME280;60618;40.084;32.908;2023-04-16T09:48:58;89380.19;;;19.00;34.11
72585;BME280;60618;40.084;32.908;2023-04-16T09:51:36;89383.75;;;19.16;36.69
72585;BME280;60618;40.084;32.908;2023-04-16T09:54:04;89380.16;;;19.42;36.58
72585;BME280;60618;40.084;32.908;2023-04-16T09:56:31;89377.47;;;19.42;36.04
72585;BME280;60618;40.084;32.908;2023-04-16T09:59:01;89373.78;;;19.32;36.23
72585;BME280;60618;40.084;32.908;2023-04-16T10:01:29;89378.44;;;19.32;36.56
72585;BME280;60618;40.084;32.908;2023-04-16T10:03:58;89374.94;;;19.44;36.30
72585;BME280;60618;40.084;32.908;2023-04-16T10:06:28;89372.31;;;19.31;35.06
72585;BME280;60618;40.084;32.908;2023-04-16T10:08:55;89367.84;;;19.34;36.09
72585;BME280;60618;40.084;32.908;2023-04-16T10:11:22;89362.69;;;19.43;35.36
72585;BME280;60618;40.084;32.908;2023-04-16T10:13:49;89365.38;;;19.64;35.33
72585;BME280;60618;40.084;32.908;2023-04-16T10:16:17;89355.19;;;19.78;33.83
72585;BME280;60618;40.084;32.908;2023-04-16T10:18:45;89363.81;;;19.76;35.05
72585;BME280;60618;40.084;32.908;2023-04-16T10:21:12;89360.09;;;19.59;33.77
72585;BME280;60618;40.084;32.908;2023-04-16T10:23:40;89356.44;;;19.77;34.86
72585;BME280;60618;40.084;32.908;2023-04-16T10:26:08;89349.97;;;19.80;34.34
72585;BME280;60618;40.084;32.908;2023-04-16T10:28:35;89344.13;;;19.40;31.49
72585;BME280;60618;40.084;32.908;2023-04-16T10:31:04;89348.06;;;19.39;34.26
72585;BME280;60618;40.084;32.908;2023-04-16T10:33:38;89340.97;;;19.28;33.92
72585;BME280;60618;40.084;32.908;2023-04-16T10:36:13;89339.19;;;19.31;34.24
72585;BME280;60618;40.084;32.908;2023-04-16T10:38:44;89346.38;;;19.28;34.59
72585;BME280;60618;40.084;32.908;2023-04-16T10:41:12;89343.88;;;19.30;33.49
72585;BME280;60618;40.084;32.908;2023-04-16T10:43:41;89340.31;;;19.35;34.35
72585;BME280;60618;40.084;32.908;2023-04-16T10:46:26;89338.00;;;19.68;33.62
72585;BME280;60618;40.084;32.908;2023-04-16T10:49:00;89333.88;;;19.67;31.98
72585;BME280;60618;40.084;32.908;2023-04-16T10:51:32;89332.84;;;19.77;33.36
72585;BME280;60618;40.084;32.908;2023-04-16T10:56:35;89335.75;;;19.51;32.66
72585;BME280;60618;40.084;32.908;2023-04-16T10:59:04;89331.66;;;19.08;33.39
72585;BME280;60618;40.084;32.908;2023-04-16T11:01:36;89320.81;;;18.80;33.31
72585;BME280;60618;40.084;32.908;2023-04-16T11:07:31;89322.84;;;19.08;32.49
72585;BME280;60618;40.084;32.908;2023-04-16T11:10:03;89314.81;;;18.94;34.26
72585;BME280;60618;40.084;32.908;2023-04-16T11:12:45;89314.56;;;18.85;33.44
72585;BME280;60618;40.084;32.908;2023-04-16T11:15:14;89307.44;;;18.74;32.78
72585;BME280;60618;40.084;32.908;2023-04-16T11:17:48;89308.59;;;18.79;33.68
72585;BME280;60618;40.084;32.908;2023-04-16T11:20:19;89302.13;;;18.82;36.17
72585;BME280;60618;40.084;32.908;2023-04-16T11:22:49;89301.34;;;18.74;35.19
72585;BME280;60618;40.084;32.908;2023-04-16T11:25:20;89289.75;;;18.65;34.22
72585;BME280;60618;40.084;32.908;2023-04-16T11:27:47;89296.94;;;18.50;35.40
72585;BME280;60618;40.084;32.908;2023-04-16T11:30:15;89295.13;;;18.44;35.99
72585;BME280;60618;40.084;32.908;2023-04-16T11:32:43;89296.69;;;18.40;35.54
72585;BME280;60618;40.084;32.908;2023-04-16T11:35:17;89291.28;;;18.40;36.48
72585;BME280;60618;40.084;32.908;2023-04-16T11:37:45;89293.78;;;18.38;34.81
72585;BME280;60618;40.084;32.908;2023-04-16T11:40:12;89288.72;;;18.34;35.39
72585;BME280;60618;40.084;32.908;2023-04-16T11:42:40;89283.34;;;18.34;35.49
72585;BME280;60618;40.084;32.908;2023-04-16T11:45:09;89282.66;;;18.41;34.29
72585;BME280;60618;40.084;32.908;2023-04-16T11:47:44;89295.59;;;18.22;34.60
72585;BME280;60618;40.084;32.908;2023-04-16T11:50:21;89286.28;;;18.23;34.64
72585;BME280;60618;40.084;32.908;2023-04-16T11:52:49;89289.38;;;18.27;34.41
72585;BME280;60618;40.084;32.908;2023-04-16T11:55:17;89294.50;;;18.38;34.67
72585;BME280;60618;40.084;32.908;2023-04-16T11:57:45;89289.53;;;18.42;34.52
72585;BME280;60618;40.084;32.908;2023-04-16T12:00:12;89283.34;;;18.34;33.37
72585;BME280;60618;40.084;32.908;2023-04-16T12:02:53;89273.34;;;18.42;35.39
72585;BME280;60618;40.084;32.908;2023-04-16T12:05:34;89266.56;;;18.49;33.10
72585;BME280;60618;40.084;32.908;2023-04-16T12:08:04;89274.53;;;18.55;31.86
72585;BME280;60618;40.084;32.908;2023-04-16T12:10:36;89288.63;;;18.61;31.39
72585;BME280;60618;40.084;32.908;2023-04-16T12:13:14;89295.25;;;18.60;32.78
72585;BME280;60618;40.084;32.908;2023-04-16T12:15:49;89308.72;;;18.05;33.11
72585;BME280;60618;40.084;32.908;2023-04-16T12:18:18;89305.25;;;16.91;38.39
72585;BME280;60618;40.084;32.908;2023-04-16T12:20:46;89361.56;;;16.00;40.11
72585;BME280;60618;40.084;32.908;2023-04-16T12:23:27;89335.53;;;15.71;41.71
72585;BME280;60618;40.084;32.908;2023-04-16T12:25:56;89340.28;;;15.40;44.32
72585;BME280;60618;40.084;32.908;2023-04-16T12:28:31;89323.38;;;15.45;45.79
72585;BME280;60618;40.084;32.908;2023-04-16T12:30:59;89320.78;;;15.58;41.65
72585;BME280;60618;40.084;32.908;2023-04-16T12:33:26;89321.81;;;15.55;44.86
72585;BME280;60618;40.084;32.908;2023-04-16T12:35:53;89323.97;;;15.57;44.15
72585;BME280;60618;40.084;32.908;2023-04-16T12:38:23;89329.53;;;15.65;43.40
72585;BME280;60618;40.084;32.908;2023-04-16T12:40:50;89345.84;;;15.67;44.67
72585;BME280;60618;40.084;32.908;2023-04-16T12:43:19;89351.28;;;15.61;44.42
72585;BME280;60618;40.084;32.908;2023-04-16T12:45:47;89367.13;;;15.65;44.75
72585;BME280;60618;40.084;32.908;2023-04-16T12:48:14;89371.69;;;15.70;44.31
72585;BME280;60618;40.084;32.908;2023-04-16T12:50:41;89381.13;;;15.76;43.51
72585;BME280;60618;40.084;32.908;2023-04-16T12:53:07;89389.41;;;15.78;43.10
72585;BME280;60618;40.084;32.908;2023-04-16T12:55:35;89383.63;;;15.93;44.33
72585;BME280;60618;40.084;32.908;2023-04-16T12:58:01;89393.44;;;16.09;43.80
72585;BME280;60618;40.084;32.908;2023-04-16T13:00:28;89399.22;;;16.13;43.73